Terminal Aerodrome Forecast
Issued by NWS

Home | Current Version | Previous Version | Text Only | Print | Product List | Glossary On
Versions: 1 2 3 4 5 6 7 8 9 10 11 12 13 14 15 16 17 18 19 20 21 22 23 24 25 26 27 28 29 30 31 32 33 34 35 36 37 38
000
FTUS45 KBOI 290520
TAFJER
TAF
KJER 290520Z 2906/3006 21007KT P6SM SCT007 OVC030
      TEMPO 2906/2910 BKN007 OVC030
     FM291500 05011KT P6SM VCSH OVC030
     FM291800 05015G22KT 5SM -SN OVC020
      TEMPO 2918/2922 2SM -SN OVC015
     FM292200 05020G28KT 5SM -SN OVC010
     FM300200 05020G28KT P6SM VCSH OVC020=

USA.gov is the U.S. government's official web portal to all federal, state and local government web resources and services.